Time;durP1;ratioP1;P1;durP2;ratioP2;P2;SDS_P1;SDS_P2;PMS_P1;PMS_P2;Temp;Humidity;BMP_temperature;BMP_pressure;BME280_temperature;BME280_humidity;BME280_pressure;Samples;Min_cycle;Max_cycle;Signal;HPM_P1;HPM_P2
2023/06/04 00:01:34;;;;;;;9.05;1.50;;;19.50;99.90;;;;;;5076662;28;20192;-91
2023/06/04 00:04:09;;;;;;;7.35;1.30;;;19.50;99.90;;;;;;5076134;28;20558;-91
2023/06/04 00:06:42;;;;;;;5.85;1.23;;;19.50;99.90;;;;;;5076908;28;20209;-90
2023/06/04 00:09:26;;;;;;;8.57;1.85;;;19.40;99.90;;;;;;5077927;28;20220;-90
2023/06/04 00:11:58;;;;;;;5.93;1.27;;;19.40;99.90;;;;;;5078175;28;20206;-90
2023/06/04 00:14:30;;;;;;;5.80;1.27;;;19.50;99.90;;;;;;5076808;28;20215;-91
2023/06/04 00:17:03;;;;;;;6.10;1.58;;;19.50;99.90;;;;;;5059838;28;20181;-92
2023/06/04 00:19:41;;;;;;;6.75;1.30;;;19.40;99.90;;;;;;5061434;28;20224;-91
2023/06/04 00:22:16;;;;;;;7.53;1.67;;;19.40;99.90;;;;;;5059510;28;20207;-91
2023/06/04 00:24:50;;;;;;;5.63;1.42;;;19.40;99.90;;;;;;5059539;28;20214;-91
2023/06/04 00:27:26;;;;;;;4.50;1.25;;;19.40;99.90;;;;;;5076595;28;20202;-90
2023/06/04 00:29:58;;;;;;;7.30;1.38;;;19.40;99.90;;;;;;5067993;28;20239;-89
2023/06/04 00:32:31;;;;;;;7.35;1.40;;;19.30;99.90;;;;;;5069805;28;20581;-91
2023/06/04 00:35:11;;;;;;;3.60;0.95;;;19.30;99.90;;;;;;5080815;28;20283;-90
2023/06/04 00:37:46;;;;;;;5.13;1.10;;;19.20;99.90;;;;;;5079384;28;20199;-91
2023/06/04 00:40:17;;;;;;;6.03;1.30;;;19.10;99.90;;;;;;5079133;28;20238;-91
2023/06/04 00:42:49;;;;;;;6.93;1.35;;;19.10;99.90;;;;;;5078252;28;20669;-89
2023/06/04 00:45:21;;;;;;;4.22;0.88;;;19.20;99.90;;;;;;5089953;28;20194;-90
2023/06/04 00:47:56;;;;;;;5.55;1.10;;;19.10;99.90;;;;;;5077151;28;20191;-90
2023/06/04 00:50:33;;;;;;;5.75;1.42;;;19.20;99.90;;;;;;5077763;28;20229;-90
2023/06/04 00:53:05;;;;;;;8.10;0.85;;;19.20;99.90;;;;;;5076914;28;20245;-90
2023/06/04 00:55:37;;;;;;;5.10;1.30;;;19.20;99.90;;;;;;5076548;28;20255;-91
2023/06/04 00:58:09;;;;;;;3.83;0.90;;;19.20;99.90;;;;;;5075886;28;20200;-90
2023/06/04 01:00:43;;;;;;;5.65;1.10;;;19.20;99.90;;;;;;5077927;28;20227;-90
2023/06/04 01:03:16;;;;;;;4.10;1.08;;;19.30;99.90;;;;;;5075917;28;20287;-90
2023/06/04 01:06:01;;;;;;;3.80;1.05;;;19.30;99.90;;;;;;5075909;28;20234;-89
2023/06/04 01:08:38;;;;;;;8.15;1.30;;;19.30;99.90;;;;;;5074248;28;20323;-91
2023/06/04 01:11:12;;;;;;;3.40;0.90;;;19.30;99.90;;;;;;5077059;28;20199;-90
2023/06/04 01:13:52;;;;;;;6.55;1.05;;;19.40;99.90;;;;;;5075396;28;20257;-91
2023/06/04 01:16:29;;;;;;;5.00;1.15;;;19.40;99.90;;;;;;5076290;28;20196;-90
2023/06/04 01:19:08;;;;;;;3.50;1.00;;;19.40;99.90;;;;;;5076207;28;20202;-90
2023/06/04 01:21:45;;;;;;;4.50;1.33;;;19.40;99.90;;;;;;5078100;28;20203;-89
2023/06/04 01:24:17;;;;;;;4.63;0.90;;;19.40;99.90;;;;;;5088797;28;20563;-90
2023/06/04 01:26:49;;;;;;;4.70;1.10;;;19.40;99.90;;;;;;5079975;28;20203;-88
2023/06/04 01:29:36;;;;;;;7.45;1.48;;;19.50;99.90;;;;;;5074887;28;20227;-91
2023/06/04 01:32:09;;;;;;;5.00;0.88;;;19.50;99.90;;;;;;5076932;28;20204;-90
2023/06/04 01:34:49;;;;;;;4.97;1.25;;;19.50;99.90;;;;;;5076205;28;20305;-90
2023/06/04 01:37:26;;;;;;;4.60;1.08;;;19.50;99.90;;;;;;5076882;28;20200;-89
2023/06/04 01:39:58;;;;;;;6.65;1.65;;;19.50;99.90;;;;;;5077600;28;20265;-90
2023/06/04 01:42:31;;;;;;;4.75;1.13;;;19.50;99.90;;;;;;5076753;28;20200;-90
2023/06/04 01:45:03;;;;;;;5.43;1.00;;;19.50;99.90;;;;;;5074889;28;20200;-90
2023/06/04 01:47:36;;;;;;;4.80;1.15;;;19.50;99.90;;;;;;5079491;28;20206;-90
2023/06/04 01:50:11;;;;;;;3.80;1.38;;;19.50;99.90;;;;;;5077181;28;20207;-90
2023/06/04 01:52:56;;;;;;;4.53;1.20;;;19.50;99.90;;;;;;5084565;28;20258;-91
2023/06/04 01:55:34;;;;;;;4.90;1.10;;;19.60;99.90;;;;;;5080758;28;20592;-90
2023/06/04 01:58:07;;;;;;;3.45;0.85;;;19.60;99.90;;;;;;5086532;28;20203;-91
2023/06/04 02:00:40;;;;;;;4.43;0.85;;;19.70;99.90;;;;;;5081400;28;20273;-89
2023/06/04 02:03:15;;;;;;;3.63;1.15;;;19.70;99.90;;;;;;5075575;28;20200;-89
2023/06/04 02:05:46;;;;;;;4.50;0.90;;;19.70;99.90;;;;;;5084529;28;20194;-90
2023/06/04 02:08:25;;;;;;;2.90;0.90;;;19.80;99.90;;;;;;5081878;28;20228;-89
2023/06/04 02:10:58;;;;;;;7.28;1.60;;;19.80;99.90;;;;;;5077195;28;20206;-90
2023/06/04 02:13:31;;;;;;;3.10;0.88;;;19.70;99.90;;;;;;5085653;28;20222;-89
2023/06/04 02:16:11;;;;;;;5.10;1.00;;;19.70;99.90;;;;;;5069268;28;20198;-89
2023/06/04 02:18:44;;;;;;;6.57;0.95;;;19.70;99.90;;;;;;5059958;28;20741;-90
2023/06/04 02:21:16;;;;;;;3.50;0.90;;;19.70;99.90;;;;;;5064177;28;20224;-90
2023/06/04 02:23:51;;;;;;;4.00;0.90;;;19.70;99.90;;;;;;5075621;28;20180;-85
2023/06/04 02:26:26;;;;;;;5.78;1.15;;;19.60;99.90;;;;;;5080422;28;20194;-88
2023/06/04 02:28:58;;;;;;;3.92;0.77;;;19.60;99.90;;;;;;5087019;28;20183;-84
2023/06/04 02:31:29;;;;;;;4.88;1.40;;;19.60;99.90;;;;;;5097670;28;20210;-89
2023/06/04 02:34:01;;;;;;;3.30;0.98;;;19.60;99.90;;;;;;5100421;28;20260;-90
2023/06/04 02:36:36;;;;;;;3.28;0.98;;;19.60;99.90;;;;;;5099676;28;20231;-89
2023/06/04 02:39:10;;;;;;;4.78;1.20;;;19.60;99.90;;;;;;5099916;28;20207;-90
2023/06/04 02:41:43;;;;;;;2.95;0.93;;;19.60;99.90;;;;;;5098924;28;20215;-89
2023/06/04 02:44:15;;;;;;;8.13;1.40;;;19.60;99.90;;;;;;5084890;28;20215;-88
2023/06/04 02:46:47;;;;;;;7.75;1.25;;;19.50;99.90;;;;;;5088864;28;20663;-89
2023/06/04 02:49:19;;;;;;;5.40;0.82;;;19.50;99.90;;;;;;5086454;28;20212;-89
2023/06/04 02:51:52;;;;;;;4.13;1.13;;;19.40;99.90;;;;;;5081717;28;20208;-88
2023/06/04 02:54:28;;;;;;;3.22;1.00;;;19.40;99.90;;;;;;5095139;28;20212;-89
2023/06/04 02:57:01;;;;;;;5.88;1.08;;;19.40;99.90;;;;;;5094818;28;20207;-89
2023/06/04 02:59:36;;;;;;;3.88;1.00;;;19.40;99.90;;;;;;5086036;28;20196;-89
2023/06/04 03:02:09;;;;;;;6.32;1.35;;;19.40;99.90;;;;;;5083013;28;20195;-90
2023/06/04 03:04:42;;;;;;;4.82;1.17;;;19.40;99.90;;;;;;5081237;28;20196;-89
2023/06/04 03:07:15;;;;;;;5.22;1.15;;;19.40;99.90;;;;;;5082141;28;20212;-90
2023/06/04 03:09:49;;;;;;;2.88;1.00;;;19.40;99.90;;;;;;5083117;28;20204;-90
2023/06/04 03:12:28;;;;;;;6.05;0.93;;;19.40;99.90;;;;;;5079044;28;20568;-89
2023/06/04 03:15:00;;;;;;;4.95;0.90;;;19.40;99.90;;;;;;5080202;28;20205;-89
2023/06/04 03:17:32;;;;;;;6.35;1.20;;;19.50;99.90;;;;;;5083596;28;20211;-90
2023/06/04 03:20:07;;;;;;;3.63;1.30;;;19.40;99.90;;;;;;5080796;28;20204;-90
2023/06/04 03:22:39;;;;;;;4.57;1.30;;;19.50;99.90;;;;;;5084935;28;20211;-90
2023/06/04 03:25:19;;;;;;;4.05;1.05;;;19.50;99.90;;;;;;5083859;28;20200;-90
2023/06/04 03:27:51;;;;;;;6.40;1.35;;;19.60;99.90;;;;;;5076940;28;20212;-89
2023/06/04 03:30:22;;;;;;;4.25;1.20;;;19.60;99.90;;;;;;5063448;28;20240;-90
2023/06/04 03:32:54;;;;;;;5.90;1.40;;;19.70;99.90;;;;;;5061325;28;20358;-90
2023/06/04 03:35:26;;;;;;;5.13;1.35;;;19.70;99.90;;;;;;5058298;28;20188;-92
2023/06/04 03:37:59;;;;;;;7.47;1.80;;;19.80;99.90;;;;;;5059605;28;20200;-90
2023/06/04 03:40:34;;;;;;;7.78;1.40;;;19.80;99.90;;;;;;5082779;28;20214;-90
2023/06/04 03:43:07;;;;;;;5.05;1.20;;;19.90;99.90;;;;;;5094135;28;20195;-87
2023/06/04 03:45:39;;;;;;;7.22;1.42;;;19.70;99.90;;;;;;5095929;28;20218;-87
2023/06/04 03:48:11;;;;;;;4.43;1.23;;;19.70;99.90;;;;;;5090096;28;20195;-90
2023/06/04 03:50:43;;;;;;;6.32;1.60;;;19.70;99.90;;;;;;5080658;28;20715;-90
2023/06/04 03:53:17;;;;;;;6.93;1.33;;;19.70;99.90;;;;;;5082902;28;20208;-90
2023/06/04 03:55:53;;;;;;;6.22;1.58;;;19.70;99.90;;;;;;5077947;28;20212;-90
2023/06/04 03:58:25;;;;;;;6.18;1.60;;;19.70;99.90;;;;;;5084367;28;20204;-90
2023/06/04 04:00:57;;;;;;;6.88;1.50;;;19.80;99.90;;;;;;5080908;28;20233;-91
2023/06/04 04:03:31;;;;;;;6.97;1.73;;;19.80;99.90;;;;;;5081315;28;20237;-91
2023/06/04 04:06:03;;;;;;;7.05;1.52;;;19.70;99.90;;;;;;5083165;28;20196;-90
2023/06/04 04:08:37;;;;;;;5.57;1.13;;;19.70;99.90;;;;;;5083281;28;20656;-91
2023/06/04 04:11:13;;;;;;;4.50;1.20;;;19.70;99.90;;;;;;5081925;28;20265;-90
2023/06/04 04:13:48;;;;;;;7.50;1.80;;;19.70;99.90;;;;;;5086268;28;20203;-92
2023/06/04 04:16:21;;;;;;;6.65;1.38;;;19.80;99.90;;;;;;5084844;28;20327;-91
2023/06/04 04:18:54;;;;;;;4.88;1.10;;;19.80;99.90;;;;;;5080670;28;20200;-91
2023/06/04 04:21:26;;;;;;;3.03;0.90;;;19.80;99.90;;;;;;5083043;28;20216;-91
2023/06/04 04:24:00;;;;;;;5.30;1.00;;;19.70;99.90;;;;;;5082049;28;20271;-90
2023/06/04 04:26:38;;;;;;;6.32;1.35;;;19.70;99.90;;;;;;5079846;28;20286;-91
2023/06/04 04:29:09;;;;;;;5.63;1.30;;;19.70;99.90;;;;;;5081376;28;20227;-91
2023/06/04 04:31:42;;;;;;;5.07;1.42;;;19.60;99.90;;;;;;5079413;28;20227;-90
2023/06/04 04:34:14;;;;;;;3.50;1.20;;;19.60;99.90;;;;;;5082877;28;20267;-90
2023/06/04 04:36:51;;;;;;;5.80;1.17;;;19.60;99.90;;;;;;5075560;28;20210;-90
2023/06/04 04:39:26;;;;;;;5.10;1.02;;;19.60;99.90;;;;;;5077522;28;20211;-90
2023/06/04 04:42:01;;;;;;;4.55;0.93;;;19.60;99.90;;;;;;5076233;28;20226;-90
2023/06/04 04:44:33;;;;;;;3.97;0.82;;;19.60;99.90;;;;;;5075759;28;20206;-90
2023/06/04 04:47:05;;;;;;;4.10;1.00;;;19.50;99.90;;;;;;5077901;28;20208;-90
2023/06/04 04:49:49;;;;;;;4.15;1.00;;;19.50;99.90;;;;;;5077548;28;20204;-89
2023/06/04 04:52:20;;;;;;;3.53;0.93;;;19.60;99.90;;;;;;5076971;28;20287;-90
2023/06/04 04:55:01;;;;;;;4.13;1.00;;;19.60;99.90;;;;;;5076399;28;20196;-90
2023/06/04 04:57:45;;;;;;;4.50;1.15;;;19.60;99.90;;;;;;5079250;28;20200;-90
2023/06/04 05:00:19;;;;;;;3.33;1.13;;;19.60;99.90;;;;;;5077303;28;20206;-92
2023/06/04 05:02:53;;;;;;;3.63;1.00;;;19.60;99.90;;;;;;5077041;28;20203;-90
2023/06/04 05:05:25;;;;;;;6.90;1.15;;;19.60;99.90;;;;;;5077264;28;20207;-90
2023/06/04 05:08:00;;;;;;;5.05;0.90;;;19.60;99.90;;;;;;5076898;28;20223;-90
2023/06/04 05:10:35;;;;;;;3.95;1.00;;;19.60;99.90;;;;;;5075617;28;20192;-90
2023/06/04 05:13:11;;;;;;;4.50;1.05;;;19.60;99.90;;;;;;5075726;28;20254;-91
2023/06/04 05:15:43;;;;;;;5.20;1.10;;;19.60;99.90;;;;;;5074043;28;20203;-91
2023/06/04 05:18:15;;;;;;;3.88;0.88;;;19.60;99.90;;;;;;5073431;28;20206;-91
2023/06/04 05:20:48;;;;;;;4.15;1.10;;;19.60;99.90;;;;;;5063754;28;20234;-89
2023/06/04 05:23:19;;;;;;;4.40;1.17;;;19.70;99.90;;;;;;5095334;28;20184;-88
2023/06/04 05:25:51;;;;;;;5.88;1.00;;;19.60;99.90;;;;;;5076862;28;20208;-91
2023/06/04 05:28:26;;;;;;;3.38;0.85;;;19.50;99.90;;;;;;5073146;28;20196;-91
2023/06/04 05:30:58;;;;;;;3.53;0.77;;;19.60;99.90;;;;;;5073456;28;20280;-91
2023/06/04 05:33:33;;;;;;;4.85;1.10;;;19.60;99.90;;;;;;5073818;28;20681;-92
2023/06/04 05:36:05;;;;;;;2.50;0.60;;;19.50;99.90;;;;;;5076067;28;20199;-91
2023/06/04 05:38:37;;;;;;;2.97;0.70;;;19.50;99.90;;;;;;5076430;28;20559;-91
2023/06/04 05:41:08;;;;;;;6.65;1.10;;;19.40;99.90;;;;;;5073896;28;20220;-90
2023/06/04 05:43:44;;;;;;;3.15;1.00;;;19.40;99.90;;;;;;5076353;28;20192;-90
2023/06/04 05:46:15;;;;;;;4.70;1.15;;;19.30;99.90;;;;;;5087221;28;20206;-89
2023/06/04 05:48:47;;;;;;;3.50;0.95;;;19.20;99.90;;;;;;5085525;28;20195;-90
2023/06/04 05:51:18;;;;;;;3.05;0.80;;;19.20;99.90;;;;;;5074207;28;20217;-90
2023/06/04 05:53:51;;;;;;;3.88;0.82;;;19.20;99.90;;;;;;5073720;28;20204;-90
2023/06/04 05:56:23;;;;;;;3.03;1.00;;;19.20;99.90;;;;;;5077786;28;20207;-91
2023/06/04 05:58:59;;;;;;;2.95;0.88;;;19.10;99.90;;;;;;5077755;28;20215;-90
2023/06/04 06:01:32;;;;;;;3.53;1.02;;;19.10;99.90;;;;;;5071011;28;20230;-88
2023/06/04 06:04:04;;;;;;;2.90;0.60;;;19.10;99.90;;;;;;5061767;28;20192;-90
2023/06/04 06:06:36;;;;;;;4.95;0.98;;;19.00;99.90;;;;;;5057832;28;20204;-90
2023/06/04 06:09:08;;;;;;;2.25;0.60;;;19.10;99.90;;;;;;5057835;28;20714;-91
2023/06/04 06:11:43;;;;;;;2.58;0.63;;;19.00;99.90;;;;;;5060741;28;20212;-91
2023/06/04 06:14:18;;;;;;;2.03;0.70;;;18.90;99.90;;;;;;5076474;28;20209;-91
2023/06/04 06:16:50;;;;;;;3.42;0.88;;;18.90;99.90;;;;;;5078047;28;20199;-90
2023/06/04 06:19:23;;;;;;;4.55;0.80;;;18.90;99.90;;;;;;5077158;28;20203;-91
2023/06/04 06:21:54;;;;;;;1.80;0.73;;;18.80;99.90;;;;;;5078023;28;20250;-90
2023/06/04 06:24:29;;;;;;;2.63;0.75;;;18.80;99.90;;;;;;5078408;28;20200;-91
2023/06/04 06:27:02;;;;;;;2.50;0.90;;;18.80;99.90;;;;;;5081245;28;20210;-91
2023/06/04 06:32:22;;;;;;;1.75;0.50;;;18.80;99.90;;;;;;5041308;28;20195;-90
2023/06/04 06:35:03;;;;;;;2.17;0.60;;;18.80;99.90;;;;;;5039783;28;20204;-90
2023/06/04 06:37:35;;;;;;;4.45;0.80;;;18.70;99.90;;;;;;5039400;28;20232;-91
2023/06/04 06:40:08;;;;;;;3.50;0.70;;;18.70;99.90;;;;;;5040592;28;20208;-90
2023/06/04 06:42:39;;;;;;;4.43;1.00;;;18.80;99.90;;;;;;5039503;28;20232;-90
2023/06/04 06:45:15;;;;;;;3.53;0.70;;;18.70;99.90;;;;;;5039371;28;20656;-91
2023/06/04 06:47:49;;;;;;;4.72;1.00;;;18.70;99.90;;;;;;5033966;28;20660;-90
2023/06/04 06:50:29;;;;;;;3.72;1.15;;;18.70;99.90;;;;;;5022632;28;20193;-90
2023/06/04 06:53:08;;;;;;;2.80;1.25;;;18.70;99.90;;;;;;5025071;28;20289;-90
2023/06/04 06:55:43;;;;;;;4.32;1.40;;;18.70;99.90;;;;;;5019890;28;20217;-90
2023/06/04 06:58:17;;;;;;;5.97;1.10;;;18.70;99.90;;;;;;5020301;28;20193;-90
2023/06/04 07:01:01;;;;;;;3.65;1.02;;;18.70;99.90;;;;;;5042336;28;20197;-90
2023/06/04 07:03:36;;;;;;;3.60;1.30;;;18.60;99.90;;;;;;5044702;28;20216;-90
2023/06/04 07:06:09;;;;;;;4.07;1.30;;;18.60;99.90;;;;;;5040490;28;20264;-91
2023/06/04 07:08:47;;;;;;;5.07;1.40;;;18.60;99.90;;;;;;5044960;28;20221;-91
2023/06/04 07:11:48;;;;;;;4.22;1.50;;;18.60;99.90;;;;;;5047189;28;20249;-89
2023/06/04 07:14:19;;;;;;;6.25;1.67;;;18.60;99.90;;;;;;5050283;28;20197;-90
2023/06/04 07:16:57;;;;;;;3.85;1.10;;;18.50;99.90;;;;;;5036368;28;20190;-90
2023/06/04 07:19:29;;;;;;;3.40;1.35;;;18.60;99.90;;;;;;5018971;28;20305;-91
2023/06/04 07:22:04;;;;;;;3.65;1.52;;;18.50;99.90;;;;;;5038086;28;20233;-88
2023/06/04 07:24:36;;;;;;;4.35;1.40;;;18.50;99.90;;;;;;5037863;28;20200;-91
2023/06/04 07:27:15;;;;;;;4.40;1.60;;;18.50;99.90;;;;;;5037973;28;20640;-91
2023/06/04 07:29:50;;;;;;;5.28;1.63;;;18.50;99.90;;;;;;5030167;28;20503;-90
2023/06/04 07:32:26;;;;;;;2.65;1.42;;;18.50;99.90;;;;;;5058842;28;20257;-90
2023/06/04 07:35:00;;;;;;;3.65;1.02;;;18.50;99.90;;;;;;5058203;28;20283;-90
2023/06/04 07:37:32;;;;;;;4.10;1.50;;;18.50;99.90;;;;;;5067655;28;20203;-91
2023/06/04 07:40:04;;;;;;;4.22;1.35;;;18.50;99.90;;;;;;5077589;28;20218;-91
2023/06/04 07:42:38;;;;;;;6.07;1.60;;;18.50;99.90;;;;;;5079167;28;20270;-90
2023/06/04 07:45:13;;;;;;;8.27;1.70;;;18.50;99.90;;;;;;5083567;28;20195;-90
2023/06/04 07:47:50;;;;;;;4.32;1.75;;;18.50;99.90;;;;;;5084807;28;20202;-90
2023/06/04 07:50:23;;;;;;;5.05;1.45;;;18.50;99.90;;;;;;5096098;28;20259;-90
2023/06/04 07:52:55;;;;;;;9.25;2.28;;;18.50;99.90;;;;;;5079720;28;20210;-90
2023/06/04 07:55:27;;;;;;;8.25;1.75;;;18.50;99.90;;;;;;5080671;28;20202;-89
2023/06/04 07:58:02;;;;;;;6.05;1.58;;;18.50;99.90;;;;;;5079393;28;20198;-91
2023/06/04 08:00:34;;;;;;;4.57;1.45;;;18.50;99.90;;;;;;5077663;28;20191;-89
2023/06/04 08:03:10;;;;;;;5.72;1.50;;;18.50;99.90;;;;;;5078274;28;20219;-90
2023/06/04 08:05:45;;;;;;;7.93;1.90;;;18.50;99.90;;;;;;5086005;28;20226;-88
2023/06/04 08:08:20;;;;;;;5.65;1.42;;;18.50;99.90;;;;;;5081437;28;20227;-90
2023/06/04 08:10:56;;;;;;;5.40;1.60;;;18.50;99.90;;;;;;5077786;28;20295;-91
2023/06/04 08:13:30;;;;;;;6.47;1.48;;;18.50;99.90;;;;;;5076451;28;20200;-91
2023/06/04 08:16:04;;;;;;;5.45;1.33;;;18.50;99.90;;;;;;5078184;28;20203;-91
2023/06/04 08:18:43;;;;;;;5.00;1.73;;;18.50;99.90;;;;;;5077272;28;20199;-90
2023/06/04 08:21:16;;;;;;;3.75;1.70;;;18.50;99.90;;;;;;5077588;28;20188;-90
2023/06/04 08:23:53;;;;;;;6.57;1.67;;;18.50;99.90;;;;;;5077461;28;20333;-90
2023/06/04 08:26:28;;;;;;;4.65;1.40;;;18.50;99.90;;;;;;5076353;28;20199;-92
2023/06/04 08:28:59;;;;;;;7.72;1.58;;;18.50;99.90;;;;;;5078433;28;20265;-91
2023/06/04 08:31:36;;;;;;;4.25;1.58;;;18.50;99.90;;;;;;5076798;28;20236;-90
2023/06/04 08:34:11;;;;;;;5.63;1.90;;;18.50;99.90;;;;;;5075198;28;20191;-91
2023/06/04 08:36:50;;;;;;;6.88;1.77;;;18.40;99.90;;;;;;5078852;28;20202;-91
2023/06/04 08:39:22;;;;;;;6.20;1.90;;;18.40;99.90;;;;;;5074570;28;20200;-91
2023/06/04 08:41:57;;;;;;;4.75;1.67;;;18.40;99.90;;;;;;5073073;28;20713;-91
2023/06/04 08:44:28;;;;;;;5.47;1.42;;;18.50;99.90;;;;;;5073298;28;20217;-89
2023/06/04 08:47:09;;;;;;;5.93;1.42;;;18.40;99.90;;;;;;5057175;28;20211;-91
2023/06/04 08:50:00;;;;;;;5.90;1.65;;;18.40;99.90;;;;;;5059956;28;20200;-91
2023/06/04 08:52:32;;;;;;;5.40;2.28;;;18.40;99.90;;;;;;5059020;28;20579;-91
2023/06/04 08:55:05;;;;;;;5.03;1.67;;;18.40;99.90;;;;;;5058442;28;20264;-90
2023/06/04 08:57:40;;;;;;;8.13;1.77;;;18.40;99.90;;;;;;5058028;28;20197;-91
2023/06/04 09:00:14;;;;;;;7.13;2.13;;;18.40;99.90;;;;;;5056377;28;20204;-91
2023/06/04 09:02:47;;;;;;;10.35;1.95;;;18.40;99.90;;;;;;5064967;28;20227;-91
2023/06/04 09:05:26;;;;;;;4.20;1.38;;;18.40;99.90;;;;;;5075736;28;20196;-90
2023/06/04 09:07:58;;;;;;;7.20;1.63;;;18.40;99.90;;;;;;5075710;28;20306;-91
2023/06/04 09:10:31;;;;;;;7.15;1.50;;;18.40;99.90;;;;;;5077292;28;20196;-90
2023/06/04 09:13:10;;;;;;;6.25;1.48;;;18.40;99.90;;;;;;5086649;28;20256;-90
2023/06/04 09:15:44;;;;;;;3.90;1.45;;;18.30;99.90;;;;;;5087723;28;20202;-90
2023/06/04 09:18:16;;;;;;;2.63;1.20;;;18.40;99.90;;;;;;5094769;28;20196;-88
2023/06/04 09:20:50;;;;;;;7.95;1.75;;;18.40;99.90;;;;;;5094848;28;20290;-88
2023/06/04 09:23:23;;;;;;;4.07;1.20;;;18.30;99.90;;;;;;5093321;28;20250;-89
2023/06/04 09:25:56;;;;;;;5.68;1.60;;;18.30;99.90;;;;;;5094365;28;20190;-90
2023/06/04 09:28:37;;;;;;;7.45;1.70;;;18.30;99.90;;;;;;5092804;28;20183;-91
2023/06/04 09:31:12;;;;;;;6.88;1.77;;;18.30;99.90;;;;;;5092579;28;20212;-90
2023/06/04 09:33:54;;;;;;;5.20;1.73;;;18.30;99.90;;;;;;5091869;28;20195;-89
2023/06/04 09:36:36;;;;;;;4.57;1.90;;;18.30;99.90;;;;;;5090086;28;20226;-90
2023/06/04 09:39:18;;;;;;;6.40;1.70;;;18.30;99.90;;;;;;5081615;28;20266;-90
2023/06/04 09:42:02;;;;;;;5.15;1.70;;;18.40;99.90;;;;;;5076514;28;20200;-91
2023/06/04 09:44:35;;;;;;;6.82;1.50;;;18.30;99.90;;;;;;5077173;28;20685;-91
2023/06/04 09:47:08;;;;;;;5.13;1.60;;;18.30;99.90;;;;;;5078186;28;20198;-91
2023/06/04 09:49:52;;;;;;;8.93;3.15;;;18.30;99.90;;;;;;5079726;28;20199;-90
2023/06/04 09:52:37;;;;;;;11.55;6.50;;;18.30;99.90;;;;;;5082122;28;20199;-90
2023/06/04 09:55:22;;;;;;;10.35;5.30;;;18.30;99.90;;;;;;5076522;28;20288;-91
2023/06/04 09:57:55;;;;;;;7.30;4.72;;;18.30;99.90;;;;;;5079720;28;20290;-90
2023/06/04 10:00:28;;;;;;;8.65;4.20;;;18.30;99.90;;;;;;5078169;28;20200;-90
2023/06/04 10:03:02;;;;;;;6.97;3.47;;;18.30;99.90;;;;;;5078087;28;20605;-90
2023/06/04 10:05:36;;;;;;;6.18;3.38;;;18.30;99.90;;;;;;5076737;28;20207;-89
2023/06/04 10:08:17;;;;;;;6.80;4.35;;;18.30;99.90;;;;;;5076084;28;20233;-90
2023/06/04 10:11:01;;;;;;;6.25;2.53;;;18.30;99.90;;;;;;5087046;28;20202;-90
2023/06/04 10:13:41;;;;;;;7.53;2.60;;;18.30;99.90;;;;;;5083775;28;20291;-90
2023/06/04 10:16:14;;;;;;;7.85;4.90;;;18.20;99.90;;;;;;5087077;28;20259;-91
2023/06/04 10:18:49;;;;;;;4.32;2.80;;;18.30;99.90;;;;;;5086964;28;20193;-91
2023/06/04 10:21:26;;;;;;;5.32;2.65;;;18.20;99.90;;;;;;5078381;28;20191;-91
2023/06/04 10:24:01;;;;;;;11.23;5.55;;;18.20;99.90;;;;;;5074914;28;20235;-90
2023/06/04 10:26:36;;;;;;;9.60;4.82;;;18.30;99.90;;;;;;5075339;28;20210;-91
2023/06/04 10:29:10;;;;;;;4.97;2.40;;;18.30;99.90;;;;;;5078357;28;20192;-92
2023/06/04 10:31:48;;;;;;;7.72;1.88;;;18.20;99.90;;;;;;5075929;28;20227;-91
2023/06/04 10:34:19;;;;;;;4.88;1.52;;;18.30;99.90;;;;;;5079954;28;20196;-91
2023/06/04 10:36:51;;;;;;;4.93;1.40;;;18.20;99.90;;;;;;5079945;28;20204;-90
2023/06/04 11:03:55;;;;;;;3.95;1.20;;;18.20;99.90;;;;;;5097021;28;20204;-89
2023/06/04 11:16:32;;;;;;;4.38;1.10;;;18.10;99.90;;;;;;5098935;28;20176;-91
2023/06/04 11:19:49;;;;;;;5.82;1.10;;;18.10;99.90;;;;;;5097193;28;20184;-89
2023/06/04 11:35:55;;;;;;;2.97;1.05;;;18.10;99.90;;;;;;5096929;28;20204;-89
2023/06/04 12:00:00;;;;;;;4.28;1.45;;;18.00;99.90;;;;;;5092635;28;20260;-90
2023/06/04 12:06:15;;;;;;;4.07;1.10;;;18.00;99.90;;;;;;5089840;28;20204;-89
2023/06/04 12:09:20;;;;;;;3.03;1.23;;;18.00;99.90;;;;;;5096012;28;20226;-89
2023/06/04 12:22:12;;;;;;;5.05;1.00;;;18.10;99.90;;;;;;5071802;28;20204;-90
2023/06/04 12:25:07;;;;;;;4.35;0.90;;;18.10;99.90;;;;;;5057322;28;20284;-91
2023/06/04 12:31:20;;;;;;;5.45;1.10;;;18.10;99.90;;;;;;5073201;28;20256;-86
2023/06/04 12:41:03;;;;;;;5.22;1.23;;;18.00;99.90;;;;;;5077076;28;20197;-90
2023/06/04 12:44:07;;;;;;;4.78;1.20;;;18.00;99.90;;;;;;5082248;28;20702;-90
2023/06/04 13:14:20;;;;;;;4.63;1.48;;;18.00;99.90;;;;;;5089918;28;20200;-88
2023/06/04 13:17:14;;;;;;;4.28;1.00;;;18.00;99.90;;;;;;5092639;28;20219;-88
2023/06/04 13:26:28;;;;;;;6.43;1.15;;;18.00;99.90;;;;;;5087503;28;20245;-89
2023/06/04 13:35:13;;;;;;;6.72;1.48;;;17.90;99.90;;;;;;5090020;28;20204;-91
2023/06/04 13:38:06;;;;;;;8.60;1.52;;;17.90;99.90;;;;;;5082938;28;20229;-91
2023/06/04 13:40:42;;;;;;;6.25;1.60;;;17.90;99.90;;;;;;5071871;28;20199;-90
2023/06/04 13:43:15;;;;;;;7.60;1.80;;;17.90;99.90;;;;;;5071002;28;20215;-91
2023/06/04 13:45:48;;;;;;;5.55;1.42;;;17.90;99.90;;;;;;5074033;28;20688;-90
2023/06/04 13:48:20;;;;;;;7.55;1.55;;;17.90;99.90;;;;;;5077077;28;20216;-91
2023/06/04 13:50:53;;;;;;;7.80;1.85;;;17.90;99.90;;;;;;5076602;28;20210;-90
2023/06/04 13:53:25;;;;;;;6.03;1.40;;;17.90;99.90;;;;;;5055679;28;20299;-91
2023/06/04 13:56:00;;;;;;;3.60;1.27;;;17.90;99.90;;;;;;5055062;28;20204;-90
2023/06/04 13:58:33;;;;;;;7.70;1.55;;;17.90;99.90;;;;;;5053971;28;20192;-90
2023/06/04 14:01:05;;;;;;;4.93;1.40;;;17.90;99.90;;;;;;5056120;28;20573;-91
2023/06/04 14:03:38;;;;;;;5.85;1.48;;;17.90;99.90;;;;;;5055858;28;20235;-90
2023/06/04 14:06:11;;;;;;;7.25;1.60;;;17.90;99.90;;;;;;5065846;28;20202;-89
2023/06/04 14:08:42;;;;;;;4.78;1.25;;;17.90;99.90;;;;;;5068718;28;20675;-90
2023/06/04 14:11:22;;;;;;;5.53;1.40;;;17.90;99.90;;;;;;5083441;28;20192;-91
2023/06/04 14:13:55;;;;;;;6.57;1.40;;;17.90;99.90;;;;;;5074414;28;20200;-92
2023/06/04 14:16:26;;;;;;;6.18;1.45;;;17.90;99.90;;;;;;5078367;28;20628;-90
2023/06/04 14:18:57;;;;;;;4.97;1.50;;;17.90;99.90;;;;;;5078958;28;20206;-90
2023/06/04 14:21:29;;;;;;;9.80;1.77;;;17.90;99.90;;;;;;5076663;28;20199;-91
2023/06/04 14:24:01;;;;;;;7.78;1.48;;;17.90;99.90;;;;;;5079105;28;20222;-91
2023/06/04 14:26:38;;;;;;;6.85;1.30;;;17.90;99.90;;;;;;5082697;28;20208;-90
2023/06/04 14:29:10;;;;;;;4.80;1.08;;;17.90;99.90;;;;;;5091315;28;20198;-87
2023/06/04 14:31:41;;;;;;;4.97;1.30;;;18.00;99.90;;;;;;5076419;28;20242;-91
2023/06/04 14:34:16;;;;;;;4.80;1.40;;;17.90;99.90;;;;;;5077330;28;20192;-91
2023/06/04 14:36:49;;;;;;;7.97;1.60;;;17.90;99.90;;;;;;5075421;28;20199;-90
2023/06/04 14:39:20;;;;;;;6.22;1.33;;;17.90;99.90;;;;;;5078407;28;20638;-91
2023/06/04 14:41:54;;;;;;;6.47;1.50;;;17.90;99.90;;;;;;5076532;28;20200;-92
2023/06/04 14:44:27;;;;;;;6.07;1.55;;;17.90;99.90;;;;;;5078344;28;20223;-91
2023/06/04 14:47:00;;;;;;;6.43;1.35;;;17.90;99.90;;;;;;5077801;28;20200;-91
2023/06/04 14:49:36;;;;;;;4.82;1.15;;;17.90;99.90;;;;;;5073599;28;20211;-91
2023/06/04 14:52:09;;;;;;;6.15;1.17;;;17.90;99.90;;;;;;5075883;28;20213;-91
2023/06/04 14:54:41;;;;;;;5.65;1.52;;;17.80;99.90;;;;;;5082333;28;20232;-90
2023/06/04 14:57:18;;;;;;;5.15;1.60;;;17.80;99.90;;;;;;5077192;28;20204;-90
2023/06/04 14:59:51;;;;;;;6.30;1.40;;;17.80;99.90;;;;;;5075896;28;20203;-91
2023/06/04 15:02:22;;;;;;;6.38;1.23;;;17.80;99.90;;;;;;5090147;28;20210;-91
2023/06/04 15:04:55;;;;;;;6.40;1.40;;;17.80;99.90;;;;;;5090663;28;20783;-91
2023/06/04 15:07:28;;;;;;;5.28;1.20;;;17.80;99.90;;;;;;5058276;28;20215;-91
2023/06/04 15:10:01;;;;;;;4.55;1.02;;;17.80;99.90;;;;;;5056001;28;20242;-90
2023/06/04 15:12:39;;;;;;;4.68;1.20;;;17.80;99.90;;;;;;5062414;28;20325;-90
2023/06/04 15:15:16;;;;;;;5.57;1.17;;;17.80;99.90;;;;;;5077143;28;20199;-91
2023/06/04 15:17:48;;;;;;;6.07;1.40;;;17.80;99.90;;;;;;5077343;28;20208;-90
2023/06/04 15:20:24;;;;;;;5.20;1.40;;;17.80;99.90;;;;;;5078631;28;20204;-91
2023/06/04 15:22:57;;;;;;;4.72;1.48;;;17.80;99.90;;;;;;5078154;28;20196;-90
2023/06/04 15:25:30;;;;;;;6.13;1.00;;;17.80;99.90;;;;;;5074680;28;20199;-91
2023/06/04 15:28:04;;;;;;;6.35;1.30;;;17.80;99.90;;;;;;5074029;28;20196;-90
2023/06/04 15:30:37;;;;;;;4.38;0.95;;;17.80;99.90;;;;;;5075556;28;20311;-91
2023/06/04 15:33:08;;;;;;;5.43;1.30;;;17.80;99.90;;;;;;5075127;28;20204;-91
2023/06/04 15:35:41;;;;;;;5.00;1.33;;;17.80;99.90;;;;;;5075659;28;20663;-90
2023/06/04 15:38:13;;;;;;;6.50;1.20;;;17.80;99.90;;;;;;5075175;28;20573;-91
2023/06/04 15:40:46;;;;;;;5.75;1.38;;;17.80;99.90;;;;;;5075095;28;20196;-91
2023/06/04 15:43:20;;;;;;;5.78;1.38;;;17.80;99.90;;;;;;5060869;28;20201;-91